Terminal Aerodrome Forecast
Issued by NWS Tampa Bay Area, FL

Home | Current Version | Previous Version | Text Only | Print | Product List | Glossary Off
Versions: 1 2 3 4 5 6 7 8 9 10 11 12 13 14

000
FTUS42 KTBW 192339
TAFSRQ
TAF
KSRQ 192339Z 2000/2024 06010KT P6SM FEW040 SCT250
     FM200600 05008KT P6SM SCT015 SCT250
     FM201400 06011KT P6SM SCT020 SCT250
     FM201700 07013G21KT P6SM SCT040 BKN100=

USA.gov is the U.S. government's official web portal to all federal, state and local government web resources and services.